sensor_id;sensor_type;location;lat;lon;timestamp;pressure;altitude;pressure_sealevel;temperature;humidity
35655;BME280;21773;50.010;19.972;2023-02-24T00:02:47;98142.53;;;13.45;47.85
35655;BME280;21773;50.010;19.972;2023-02-24T00:05:50;98143.09;;;13.47;47.85
35655;BME280;21773;50.010;19.972;2023-02-24T00:08:53;98140.16;;;13.54;47.64
35655;BME280;21773;50.010;19.972;2023-02-24T00:11:59;98129.13;;;13.60;47.57
35655;BME280;21773;50.010;19.972;2023-02-24T00:15:05;98137.53;;;13.64;47.46
35655;BME280;21773;50.010;19.972;2023-02-24T00:18:10;98122.88;;;13.60;47.47
35655;BME280;21773;50.010;19.972;2023-02-24T00:21:14;98124.47;;;13.56;47.35
35655;BME280;21773;50.010;19.972;2023-02-24T00:24:24;98118.22;;;13.50;47.63
35655;BME280;21773;50.010;19.972;2023-02-24T00:27:27;98121.22;;;13.54;47.63
35655;BME280;21773;50.010;19.972;2023-02-24T00:30:32;98117.97;;;13.52;47.55
35655;BME280;21773;50.010;19.972;2023-02-24T00:33:36;98118.22;;;13.50;47.60
35655;BME280;21773;50.010;19.972;2023-02-24T00:36:40;98116.06;;;13.52;47.81
35655;BME280;21773;50.010;19.972;2023-02-24T00:39:44;98112.00;;;13.55;47.59
35655;BME280;21773;50.010;19.972;2023-02-24T00:42:48;98090.59;;;13.48;47.52
35655;BME280;21773;50.010;19.972;2023-02-24T00:45:53;98100.94;;;13.56;47.71
35655;BME280;21773;50.010;19.972;2023-02-24T00:48:56;98092.84;;;13.61;47.50
35655;BME280;21773;50.010;19.972;2023-02-24T00:52:00;98091.78;;;13.62;47.55
35655;BME280;21773;50.010;19.972;2023-02-24T00:55:06;98083.63;;;13.57;47.63
35655;BME280;21773;50.010;19.972;2023-02-24T00:58:15;98080.31;;;13.50;47.86
35655;BME280;21773;50.010;19.972;2023-02-24T01:01:24;98071.63;;;13.48;47.64
35655;BME280;21773;50.010;19.972;2023-02-24T01:04:28;98069.75;;;13.49;47.83
35655;BME280;21773;50.010;19.972;2023-02-24T01:07:32;98076.00;;;13.54;47.81
35655;BME280;21773;50.010;19.972;2023-02-24T01:10:35;98073.84;;;13.56;47.79
35655;BME280;21773;50.010;19.972;2023-02-24T01:13:38;98067.59;;;13.51;48.00
35655;BME280;21773;50.010;19.972;2023-02-24T01:16:43;98060.00;;;13.48;47.99
35655;BME280;21773;50.010;19.972;2023-02-24T01:19:51;98064.06;;;13.50;47.79
35655;BME280;21773;50.010;19.972;2023-02-24T01:22:56;98062.38;;;13.44;48.08
35655;BME280;21773;50.010;19.972;2023-02-24T01:25:59;98061.84;;;13.42;48.08
35655;BME280;21773;50.010;19.972;2023-02-24T01:29:04;98062.34;;;13.39;48.23
35655;BME280;21773;50.010;19.972;2023-02-24T01:32:14;98057.47;;;13.36;48.22
35655;BME280;21773;50.010;19.972;2023-02-24T01:35:20;98045.03;;;13.40;48.09
35655;BME280;21773;50.010;19.972;2023-02-24T01:38:23;98043.66;;;13.37;48.26
35655;BME280;21773;50.010;19.972;2023-02-24T01:41:27;98035.28;;;13.39;48.21
35655;BME280;21773;50.010;19.972;2023-02-24T01:45:04;98035.31;;;13.44;48.22
35655;BME280;21773;50.010;19.972;2023-02-24T01:48:10;98038.28;;;13.42;48.21
35655;BME280;21773;50.010;19.972;2023-02-24T01:51:14;98010.91;;;13.34;48.10
35655;BME280;21773;50.010;19.972;2023-02-24T01:54:20;98012.78;;;13.33;48.16
35655;BME280;21773;50.010;19.972;2023-02-24T01:57:28;98027.19;;;13.44;48.24
35655;BME280;21773;50.010;19.972;2023-02-24T02:00:33;98022.09;;;13.48;48.21
35655;BME280;21773;50.010;19.972;2023-02-24T02:03:47;98020.41;;;13.41;48.39
35655;BME280;21773;50.010;19.972;2023-02-24T02:06:50;98015.00;;;13.41;48.33
35655;BME280;21773;50.010;19.972;2023-02-24T02:09:57;98011.19;;;13.37;48.34
35655;BME280;21773;50.010;19.972;2023-02-24T02:13:01;98006.31;;;13.39;48.39
35655;BME280;21773;50.010;19.972;2023-02-24T02:16:35;97991.34;;;13.27;48.48
35655;BME280;21773;50.010;19.972;2023-02-24T02:23:29;98002.81;;;13.44;48.33
35655;BME280;21773;50.010;19.972;2023-02-24T02:30:46;97995.31;;;13.56;48.21
35655;BME280;21773;50.010;19.972;2023-02-24T02:34:09;97999.13;;;13.60;48.09
35655;BME280;21773;50.010;19.972;2023-02-24T02:37:23;97985.09;;;13.63;47.85
35655;BME280;21773;50.010;19.972;2023-02-24T02:40:36;97986.16;;;13.62;48.03
35655;BME280;21773;50.010;19.972;2023-02-24T02:43:47;97982.41;;;13.73;47.64
35655;BME280;21773;50.010;19.972;2023-02-24T02:46:58;97978.09;;;13.77;47.33
35655;BME280;21773;50.010;19.972;2023-02-24T02:50:11;97967.53;;;13.76;47.29
35655;BME280;21773;50.010;19.972;2023-02-24T02:53:25;97984.66;;;13.86;47.19
35655;BME280;21773;50.010;19.972;2023-02-24T02:56:35;97982.50;;;13.94;47.19
35655;BME280;21773;50.010;19.972;2023-02-24T02:59:43;97978.69;;;13.95;47.13
35655;BME280;21773;50.010;19.972;2023-02-24T03:02:52;97978.41;;;13.86;47.26
35655;BME280;21773;50.010;19.972;2023-02-24T03:06:01;97982.69;;;13.77;47.41
35655;BME280;21773;50.010;19.972;2023-02-24T03:09:10;97971.31;;;13.75;47.57
35655;BME280;21773;50.010;19.972;2023-02-24T03:12:20;97980.00;;;13.77;47.66
35655;BME280;21773;50.010;19.972;2023-02-24T03:15:27;97974.00;;;13.75;47.85
35655;BME280;21773;50.010;19.972;2023-02-24T03:18:36;97971.31;;;13.80;48.26
35655;BME280;21773;50.010;19.972;2023-02-24T03:21:44;97967.19;;;13.62;48.56
35655;BME280;21773;50.010;19.972;2023-02-24T03:24:51;97973.41;;;13.58;49.25
35655;BME280;21773;50.010;19.972;2023-02-24T03:28:10;97969.09;;;13.62;49.39
35655;BME280;21773;50.010;19.972;2023-02-24T03:31:22;97966.59;;;13.55;49.79
35655;BME280;21773;50.010;19.972;2023-02-24T03:34:36;97963.59;;;13.47;50.56
35655;BME280;21773;50.010;19.972;2023-02-24T03:37:46;97958.72;;;13.43;51.29
35655;BME280;21773;50.010;19.972;2023-02-24T03:40:51;97961.63;;;13.37;52.00
35655;BME280;21773;50.010;19.972;2023-02-24T03:44:00;97961.59;;;13.32;52.53
35655;BME280;21773;50.010;19.972;2023-02-24T03:47:06;97956.88;;;13.12;53.64
35655;BME280;21773;50.010;19.972;2023-02-24T03:50:13;97955.56;;;13.20;53.90
35655;BME280;21773;50.010;19.972;2023-02-24T03:53:30;97944.44;;;13.16;54.28
35655;BME280;21773;50.010;19.972;2023-02-24T03:56:44;97945.75;;;13.09;54.64
35655;BME280;21773;50.010;19.972;2023-02-24T03:59:57;97932.75;;;13.11;55.22
35655;BME280;21773;50.010;19.972;2023-02-24T04:03:34;97931.75;;;13.17;54.89
35655;BME280;21773;50.010;19.972;2023-02-24T04:06:58;97922.44;;;13.08;55.65
35655;BME280;21773;50.010;19.972;2023-02-24T04:10:07;97925.13;;;13.02;55.63
35655;BME280;21773;50.010;19.972;2023-02-24T04:13:25;97916.97;;;12.97;55.59
35655;BME280;21773;50.010;19.972;2023-02-24T04:16:34;97918.06;;;13.01;56.37
35655;BME280;21773;50.010;19.972;2023-02-24T04:19:42;97900.97;;;12.91;56.84
35655;BME280;21773;50.010;19.972;2023-02-24T04:22:53;97905.88;;;12.94;56.61
35655;BME280;21773;50.010;19.972;2023-02-24T04:26:02;97902.34;;;12.93;56.81
35655;BME280;21773;50.010;19.972;2023-02-24T04:29:06;97887.41;;;12.86;57.35
35655;BME280;21773;50.010;19.972;2023-02-24T04:32:12;97893.13;;;12.89;57.51
35655;BME280;21773;50.010;19.972;2023-02-24T04:35:19;97873.06;;;12.80;57.73
35655;BME280;21773;50.010;19.972;2023-02-24T04:38:24;97891.28;;;12.95;57.70
35655;BME280;21773;50.010;19.972;2023-02-24T04:41:29;97893.69;;;12.96;58.11
35655;BME280;21773;50.010;19.972;2023-02-24T04:44:33;97879.06;;;12.92;57.99
35655;BME280;21773;50.010;19.972;2023-02-24T04:47:36;97883.66;;;12.92;58.15
35655;BME280;21773;50.010;19.972;2023-02-24T04:50:43;97873.09;;;12.90;58.23
35655;BME280;21773;50.010;19.972;2023-02-24T04:53:48;97877.72;;;12.90;58.41
35655;BME280;21773;50.010;19.972;2023-02-24T04:56:57;97872.28;;;12.85;58.49
35655;BME280;21773;50.010;19.972;2023-02-24T05:00:01;97865.50;;;12.87;58.59
35655;BME280;21773;50.010;19.972;2023-02-24T05:03:09;97845.41;;;12.73;59.17
35655;BME280;21773;50.010;19.972;2023-02-24T05:06:13;97861.13;;;12.81;58.86
35655;BME280;21773;50.010;19.972;2023-02-24T05:09:17;97856.81;;;12.80;59.16
35655;BME280;21773;50.010;19.972;2023-02-24T05:12:22;97850.59;;;12.80;59.21
35655;BME280;21773;50.010;19.972;2023-02-24T05:15:27;97850.03;;;12.78;59.34
35655;BME280;21773;50.010;19.972;2023-02-24T05:18:33;97849.72;;;12.69;59.78
35655;BME280;21773;50.010;19.972;2023-02-24T05:21:38;97848.06;;;12.68;59.58
35655;BME280;21773;50.010;19.972;2023-02-24T05:24:40;97842.66;;;12.68;59.82
35655;BME280;21773;50.010;19.972;2023-02-24T05:27:46;97826.94;;;12.60;59.88
35655;BME280;21773;50.010;19.972;2023-02-24T05:30:49;97837.50;;;12.67;59.88
35655;BME280;21773;50.010;19.972;2023-02-24T05:33:55;97845.94;;;12.70;59.82
35655;BME280;21773;50.010;19.972;2023-02-24T05:37:00;97844.03;;;12.71;59.83
35655;BME280;21773;50.010;19.972;2023-02-24T05:40:11;97843.53;;;12.74;59.77
35655;BME280;21773;50.010;19.972;2023-02-24T05:43:17;97834.59;;;12.73;59.57
35655;BME280;21773;50.010;19.972;2023-02-24T05:46:24;97835.91;;;12.71;59.38
35655;BME280;21773;50.010;19.972;2023-02-24T05:49:31;97839.72;;;12.70;59.80
35655;BME280;21773;50.010;19.972;2023-02-24T05:52:35;97836.47;;;12.73;59.82
35655;BME280;21773;50.010;19.972;2023-02-24T05:55:39;97831.88;;;12.73;59.92
35655;BME280;21773;50.010;19.972;2023-02-24T05:58:43;97827.25;;;12.69;59.83
35655;BME280;21773;50.010;19.972;2023-02-24T06:01:48;97820.47;;;12.66;59.88
35655;BME280;21773;50.010;19.972;2023-02-24T06:04:54;97822.09;;;12.67;59.68
35655;BME280;21773;50.010;19.972;2023-02-24T06:07:57;97815.59;;;12.63;60.17
35655;BME280;21773;50.010;19.972;2023-02-24T06:11:07;97801.47;;;12.56;60.13
35655;BME280;21773;50.010;19.972;2023-02-24T06:14:14;97813.19;;;12.67;59.97
35655;BME280;21773;50.010;19.972;2023-02-24T06:17:18;97805.63;;;12.69;60.04
35655;BME280;21773;50.010;19.972;2023-02-24T06:20:23;97808.63;;;12.72;60.21
35655;BME280;21773;50.010;19.972;2023-02-24T06:23:28;97805.91;;;12.72;60.08
35655;BME280;21773;50.010;19.972;2023-02-24T06:26:32;97801.88;;;12.75;60.07
35655;BME280;21773;50.010;19.972;2023-02-24T06:29:39;97795.38;;;12.76;60.06
35655;BME280;21773;50.010;19.972;2023-02-24T06:32:42;97794.88;;;12.79;59.70
35655;BME280;21773;50.010;19.972;2023-02-24T06:35:46;97787.88;;;12.88;59.46
35655;BME280;21773;50.010;19.972;2023-02-24T06:38:50;97795.22;;;12.92;59.51
35655;BME280;21773;50.010;19.972;2023-02-24T06:41:53;97793.88;;;12.95;58.95
35655;BME280;21773;50.010;19.972;2023-02-24T06:44:59;97788.19;;;12.96;59.07
35655;BME280;21773;50.010;19.972;2023-02-24T06:48:03;97787.94;;;12.98;58.59
35655;BME280;21773;50.010;19.972;2023-02-24T06:51:08;97789.25;;;12.95;58.58
35655;BME280;21773;50.010;19.972;2023-02-24T06:54:11;97778.69;;;12.89;58.74
35655;BME280;21773;50.010;19.972;2023-02-24T06:57:16;97774.91;;;12.90;58.48
35655;BME280;21773;50.010;19.972;2023-02-24T07:00:24;97778.41;;;12.90;58.27
35655;BME280;21773;50.010;19.972;2023-02-24T07:03:38;97766.53;;;12.91;58.16
35655;BME280;21773;50.010;19.972;2023-02-24T07:06:44;97766.00;;;12.89;57.91
35655;BME280;21773;50.010;19.972;2023-02-24T07:09:48;97766.28;;;12.98;57.30
35655;BME280;21773;50.010;19.972;2023-02-24T07:12:52;97746.50;;;12.92;57.45
35655;BME280;21773;50.010;19.972;2023-02-24T07:15:58;97762.97;;;12.86;57.75
35655;BME280;21773;50.010;19.972;2023-02-24T07:19:10;97756.78;;;12.95;57.60
35655;BME280;21773;50.010;19.972;2023-02-24T07:22:14;97760.63;;;12.99;57.55
35655;BME280;21773;50.010;19.972;2023-02-24T07:25:18;97752.22;;;12.96;57.67
35655;BME280;21773;50.010;19.972;2023-02-24T07:28:34;97744.41;;;13.05;57.80
35655;BME280;21773;50.010;19.972;2023-02-24T07:31:39;97742.25;;;13.07;57.87
35655;BME280;21773;50.010;19.972;2023-02-24T07:34:44;97744.41;;;13.10;57.75
35655;BME280;21773;50.010;19.972;2023-02-24T07:37:47;97735.25;;;13.16;56.94
35655;BME280;21773;50.010;19.972;2023-02-24T07:40:50;97727.97;;;13.21;57.00
35655;BME280;21773;50.010;19.972;2023-02-24T07:43:59;97732.56;;;13.21;57.12
35655;BME280;21773;50.010;19.972;2023-02-24T07:47:05;97735.84;;;13.23;56.66
35655;BME280;21773;50.010;19.972;2023-02-24T07:50:10;97729.91;;;13.41;56.40
35655;BME280;21773;50.010;19.972;2023-02-24T07:53:19;97720.72;;;13.47;56.20
35655;BME280;21773;50.010;19.972;2023-02-24T07:56:24;97712.63;;;13.57;55.48
35655;BME280;21773;50.010;19.972;2023-02-24T07:59:30;97712.63;;;13.67;55.23
35655;BME280;21773;50.010;19.972;2023-02-24T08:02:35;97718.31;;;13.66;55.44
35655;BME280;21773;50.010;19.972;2023-02-24T08:05:39;97714.78;;;13.75;55.02
35655;BME280;21773;50.010;19.972;2023-02-24T08:08:44;97718.59;;;13.84;55.06
35655;BME280;21773;50.010;19.972;2023-02-24T08:11:59;97715.88;;;13.84;55.01
35655;BME280;21773;50.010;19.972;2023-02-24T08:15:05;97711.28;;;13.85;55.09
35655;BME280;21773;50.010;19.972;2023-02-24T08:18:19;97707.75;;;13.95;54.82
35655;BME280;21773;50.010;19.972;2023-02-24T08:21:23;97703.41;;;14.09;54.46
35655;BME280;21773;50.010;19.972;2023-02-24T08:24:28;97708.00;;;14.39;53.22
35655;BME280;21773;50.010;19.972;2023-02-24T08:27:33;97703.22;;;14.95;51.79
35655;BME280;21773;50.010;19.972;2023-02-24T08:30:41;97696.81;;;16.02;49.58
35655;BME280;21773;50.010;19.972;2023-02-24T08:33:48;97698.06;;;16.68;47.18
35655;BME280;21773;50.010;19.972;2023-02-24T08:36:57;97691.38;;;16.55;46.62
35655;BME280;21773;50.010;19.972;2023-02-24T08:40:01;97682.81;;;16.14;46.81
35655;BME280;21773;50.010;19.972;2023-02-24T08:43:09;97684.00;;;16.03;46.78
35655;BME280;21773;50.010;19.972;2023-02-24T08:46:20;97677.47;;;16.04;46.95
35655;BME280;21773;50.010;19.972;2023-02-24T08:49:29;97688.41;;;15.65;46.77
35655;BME280;21773;50.010;19.972;2023-02-24T08:52:34;97675.19;;;15.48;47.06
35655;BME280;21773;50.010;19.972;2023-02-24T08:55:37;97682.97;;;15.21;47.86
35655;BME280;21773;50.010;19.972;2023-02-24T08:58:44;97676.75;;;15.15;48.01
35655;BME280;21773;50.010;19.972;2023-02-24T09:01:50;97680.06;;;15.07;48.57
35655;BME280;21773;50.010;19.972;2023-02-24T09:05:15;97672.22;;;15.01;48.26
35655;BME280;21773;50.010;19.972;2023-02-24T09:08:18;97658.41;;;14.97;48.48
35655;BME280;21773;50.010;19.972;2023-02-24T09:11:24;97665.72;;;14.97;47.98
35655;BME280;21773;50.010;19.972;2023-02-24T09:14:30;97663.00;;;14.97;47.80
35655;BME280;21773;50.010;19.972;2023-02-24T09:17:37;97671.13;;;15.02;48.16
35655;BME280;21773;50.010;19.972;2023-02-24T09:20:52;97655.34;;;15.14;48.36
35655;BME280;21773;50.010;19.972;2023-02-24T09:24:17;97650.19;;;15.12;48.07
35655;BME280;21773;50.010;19.972;2023-02-24T09:27:28;97653.09;;;15.21;47.89
35655;BME280;21773;50.010;19.972;2023-02-24T09:30:31;97644.50;;;15.09;48.13
35655;BME280;21773;50.010;19.972;2023-02-24T09:33:52;97641.50;;;15.10;48.00
35655;BME280;21773;50.010;19.972;2023-02-24T09:36:56;97634.25;;;14.96;48.08
35655;BME280;21773;50.010;19.972;2023-02-24T09:40:05;97639.41;;;14.97;48.35
35655;BME280;21773;50.010;19.972;2023-02-24T09:43:28;97640.78;;;14.95;48.43
35655;BME280;21773;50.010;19.972;2023-02-24T09:46:36;97639.13;;;14.99;48.16
35655;BME280;21773;50.010;19.972;2023-02-24T09:49:47;97630.22;;;14.88;48.06
35655;BME280;21773;50.010;19.972;2023-02-24T09:52:54;97623.19;;;14.82;47.95
35655;BME280;21773;50.010;19.972;2023-02-24T09:56:19;97617.56;;;14.73;48.18
35655;BME280;21773;50.010;19.972;2023-02-24T09:59:28;97615.59;;;14.89;48.12
35655;BME280;21773;50.010;19.972;2023-02-24T10:02:40;97612.22;;;15.02;47.72
35655;BME280;21773;50.010;19.972;2023-02-24T10:05:53;97606.19;;;15.10;47.67
35655;BME280;21773;50.010;19.972;2023-02-24T10:09:07;97614.81;;;15.23;47.38
35655;BME280;21773;50.010;19.972;2023-02-24T10:12:20;97609.38;;;15.23;47.29
35655;BME280;21773;50.010;19.972;2023-02-24T10:15:29;97610.69;;;15.30;47.07
35655;BME280;21773;50.010;19.972;2023-02-24T10:19:04;97617.66;;;15.41;46.92
35655;BME280;21773;50.010;19.972;2023-02-24T10:22:22;97602.38;;;15.55;46.93
35655;BME280;21773;50.010;19.972;2023-02-24T10:25:44;97599.66;;;15.55;46.99
35655;BME280;21773;50.010;19.972;2023-02-24T10:29:03;97601.97;;;15.72;46.95
35655;BME280;21773;50.010;19.972;2023-02-24T10:32:25;97592.75;;;15.97;46.55
35655;BME280;21773;50.010;19.972;2023-02-24T10:35:35;97583.94;;;16.29;45.94
35655;BME280;21773;50.010;19.972;2023-02-24T10:38:39;97585.47;;;16.40;45.64
35655;BME280;21773;50.010;19.972;2023-02-24T10:41:49;97571.03;;;16.63;45.83
35655;BME280;21773;50.010;19.972;2023-02-24T10:45:11;97568.53;;;16.67;45.17
35655;BME280;21773;50.010;19.972;2023-02-24T10:48:22;97550.44;;;17.13;44.30
35655;BME280;21773;50.010;19.972;2023-02-24T10:51:47;97544.28;;;17.59;43.42
35655;BME280;21773;50.010;19.972;2023-02-24T10:54:53;97541.06;;;17.70;43.35
35655;BME280;21773;50.010;19.972;2023-02-24T10:58:13;97530.59;;;17.78;43.17
35655;BME280;21773;50.010;19.972;2023-02-24T11:01:30;97532.69;;;17.81;43.06
35655;BME280;21773;50.010;19.972;2023-02-24T11:04:56;97526.84;;;17.55;42.60
35655;BME280;21773;50.010;19.972;2023-02-24T11:08:18;97526.63;;;17.38;42.99
35655;BME280;21773;50.010;19.972;2023-02-24T11:11:41;97509.56;;;17.32;43.17
35655;BME280;21773;50.010;19.972;2023-02-24T11:15:02;97504.47;;;17.44;43.00
35655;BME280;21773;50.010;19.972;2023-02-24T11:18:25;97498.06;;;17.95;42.50
35655;BME280;21773;50.010;19.972;2023-02-24T11:21:29;97495.81;;;18.65;40.67
35655;BME280;21773;50.010;19.972;2023-02-24T11:24:35;97477.03;;;19.53;39.11
35655;BME280;21773;50.010;19.972;2023-02-24T11:27:40;97472.06;;;20.42;37.68
35655;BME280;21773;50.010;19.972;2023-02-24T11:30:51;97470.44;;;21.44;35.50
35655;BME280;21773;50.010;19.972;2023-02-24T11:34:04;97468.41;;;21.71;34.75
35655;BME280;21773;50.010;19.972;2023-02-24T11:37:15;97463.63;;;21.50;34.88
35655;BME280;21773;50.010;19.972;2023-02-24T11:40:25;97445.00;;;21.35;35.71
35655;BME280;21773;50.010;19.972;2023-02-24T11:43:33;97458.38;;;21.11;35.81
35655;BME280;21773;50.010;19.972;2023-02-24T11:46:42;97446.16;;;20.74;35.92
35655;BME280;21773;50.010;19.972;2023-02-24T11:49:50;97448.72;;;20.70;36.36
35655;BME280;21773;50.010;19.972;2023-02-24T11:52:57;97433.59;;;20.64;37.00
35655;BME280;21773;50.010;19.972;2023-02-24T11:56:05;97425.69;;;20.46;36.78
35655;BME280;21773;50.010;19.972;2023-02-24T11:59:16;97423.66;;;21.41;36.51
35655;BME280;21773;50.010;19.972;2023-02-24T12:02:31;97413.94;;;21.98;34.55
35655;BME280;21773;50.010;19.972;2023-02-24T12:05:39;97417.50;;;21.90;34.58
35655;BME280;21773;50.010;19.972;2023-02-24T12:08:46;97412.72;;;21.79;35.17
35655;BME280;21773;50.010;19.972;2023-02-24T12:11:53;97416.41;;;21.36;35.31
35655;BME280;21773;50.010;19.972;2023-02-24T12:15:02;97418.25;;;20.98;36.44
35655;BME280;21773;50.010;19.972;2023-02-24T12:18:14;97417.13;;;20.39;36.74
35655;BME280;21773;50.010;19.972;2023-02-24T12:21:25;97408.00;;;19.86;37.58
35655;BME280;21773;50.010;19.972;2023-02-24T12:24:34;97405.38;;;19.42;38.24
35655;BME280;21773;50.010;19.972;2023-02-24T12:27:49;97384.03;;;19.13;39.01
35655;BME280;21773;50.010;19.972;2023-02-24T12:31:03;97393.31;;;18.81;39.26
35655;BME280;21773;50.010;19.972;2023-02-24T12:34:19;97394.50;;;18.67;39.57
35655;BME280;21773;50.010;19.972;2023-02-24T12:37:41;97387.06;;;18.45;39.40
35655;BME280;21773;50.010;19.972;2023-02-24T12:40:56;97381.78;;;18.26;39.71
35655;BME280;21773;50.010;19.972;2023-02-24T12:44:12;97391.44;;;17.96;40.09
35655;BME280;21773;50.010;19.972;2023-02-24T12:47:24;97383.88;;;17.80;40.65
35655;BME280;21773;50.010;19.972;2023-02-24T12:50:40;97371.47;;;17.60;40.79
35655;BME280;21773;50.010;19.972;2023-02-24T12:53:53;97356.81;;;17.42;41.20
35655;BME280;21773;50.010;19.972;2023-02-24T12:57:08;97369.91;;;17.13;41.42
35655;BME280;21773;50.010;19.972;2023-02-24T13:00:19;97361.41;;;17.01;41.80
35655;BME280;21773;50.010;19.972;2023-02-24T13:03:35;97359.56;;;16.82;42.31
35655;BME280;21773;50.010;19.972;2023-02-24T13:06:55;97365.28;;;16.48;42.97
35655;BME280;21773;50.010;19.972;2023-02-24T13:10:17;97363.09;;;16.51;43.29
35655;BME280;21773;50.010;19.972;2023-02-24T13:13:30;97339.56;;;16.41;43.75
35655;BME280;21773;50.010;19.972;2023-02-24T13:16:36;97346.97;;;16.54;44.56
35655;BME280;21773;50.010;19.972;2023-02-24T13:19:40;97349.47;;;16.69;44.21
35655;BME280;21773;50.010;19.972;2023-02-24T13:22:45;97338.97;;;16.76;43.51
35655;BME280;21773;50.010;19.972;2023-02-24T13:25:51;97351.59;;;16.86;43.33
35655;BME280;21773;50.010;19.972;2023-02-24T13:29:00;97338.81;;;16.86;43.57
35655;BME280;21773;50.010;19.972;2023-02-24T13:32:04;97330.28;;;17.48;42.31
35655;BME280;21773;50.010;19.972;2023-02-24T13:35:29;97331.81;;;18.03;40.90
35655;BME280;21773;50.010;19.972;2023-02-24T13:38:36;97327.03;;;18.23;40.68
35655;BME280;21773;50.010;19.972;2023-02-24T13:41:41;97332.41;;;18.14;40.19
35655;BME280;21773;50.010;19.972;2023-02-24T13:44:47;97319.56;;;17.92;40.31
35655;BME280;21773;50.010;19.972;2023-02-24T13:51:39;97306.38;;;17.58;40.64
35655;BME280;21773;50.010;19.972;2023-02-24T13:55:06;97305.66;;;17.53;41.07
35655;BME280;21773;50.010;19.972;2023-02-24T13:58:32;97304.97;;;17.33;41.41
35655;BME280;21773;50.010;19.972;2023-02-24T14:01:48;97313.16;;;17.20;41.30
35655;BME280;21773;50.010;19.972;2023-02-24T14:04:55;97298.69;;;16.92;41.73
35655;BME280;21773;50.010;19.972;2023-02-24T14:08:00;97297.31;;;16.95;41.86
35655;BME280;21773;50.010;19.972;2023-02-24T14:11:09;97293.94;;;16.70;41.94
35655;BME280;21773;50.010;19.972;2023-02-24T14:14:16;97296.53;;;16.62;42.40
35655;BME280;21773;50.010;19.972;2023-02-24T14:17:23;97291.69;;;16.59;42.06
35655;BME280;21773;50.010;19.972;2023-02-24T14:20:32;97295.06;;;16.51;42.20
35655;BME280;21773;50.010;19.972;2023-02-24T14:23:35;97282.88;;;16.48;42.48
35655;BME280;21773;50.010;19.972;2023-02-24T14:26:43;97289.38;;;16.33;42.43
35655;BME280;21773;50.010;19.972;2023-02-24T14:29:50;97286.44;;;16.30;42.57
35655;BME280;21773;50.010;19.972;2023-02-24T14:32:54;97284.81;;;16.29;42.57
35655;BME280;21773;50.010;19.972;2023-02-24T14:35:59;97264.16;;;16.28;42.83
35655;BME280;21773;50.010;19.972;2023-02-24T14:39:11;97240.31;;;16.25;42.88
35655;BME280;21773;50.010;19.972;2023-02-24T14:42:17;97245.06;;;16.33;42.91
35655;BME280;21773;50.010;19.972;2023-02-24T14:45:23;97244.03;;;16.29;43.23
35655;BME280;21773;50.010;19.972;2023-02-24T14:48:29;97240.81;;;16.27;43.03
35655;BME280;21773;50.010;19.972;2023-02-24T14:51:34;97236.13;;;16.14;42.57
35655;BME280;21773;50.010;19.972;2023-02-24T14:54:42;97210.25;;;16.02;42.96
35655;BME280;21773;50.010;19.972;2023-02-24T14:57:54;97215.84;;;15.92;42.98
35655;BME280;21773;50.010;19.972;2023-02-24T15:01:01;97220.56;;;15.87;43.26
35655;BME280;21773;50.010;19.972;2023-02-24T15:04:12;97208.59;;;15.69;43.39
35655;BME280;21773;50.010;19.972;2023-02-24T15:07:17;97207.88;;;15.64;43.51
35655;BME280;21773;50.010;19.972;2023-02-24T15:10:24;97215.28;;;15.58;43.62
35655;BME280;21773;50.010;19.972;2023-02-24T15:13:36;97212.13;;;15.51;43.72
35655;BME280;21773;50.010;19.972;2023-02-24T15:16:42;97202.25;;;15.36;44.07
35655;BME280;21773;50.010;19.972;2023-02-24T15:19:47;97213.66;;;15.38;44.24
35655;BME280;21773;50.010;19.972;2023-02-24T15:22:56;97203.22;;;15.27;44.30
35655;BME280;21773;50.010;19.972;2023-02-24T15:26:00;97202.31;;;15.12;44.61
35655;BME280;21773;50.010;19.972;2023-02-24T15:29:17;97195.41;;;15.01;44.82
35655;BME280;21773;50.010;19.972;2023-02-24T15:32:24;97191.44;;;14.94;45.10
35655;BME280;21773;50.010;19.972;2023-02-24T15:35:29;97186.81;;;14.94;45.17
35655;BME280;21773;50.010;19.972;2023-02-24T15:38:36;97189.97;;;15.01;45.16
35655;BME280;21773;50.010;19.972;2023-02-24T15:41:42;97186.91;;;15.08;45.06
35655;BME280;21773;50.010;19.972;2023-02-24T15:44:52;97193.16;;;15.08;45.09
35655;BME280;21773;50.010;19.972;2023-02-24T15:47:57;97196.59;;;15.14;45.18
35655;BME280;21773;50.010;19.972;2023-02-24T15:51:04;97201.91;;;15.00;45.78
35655;BME280;21773;50.010;19.972;2023-02-24T15:54:10;97220.88;;;14.82;48.20
35655;BME280;21773;50.010;19.972;2023-02-24T15:57:15;97215.75;;;14.80;50.59
35655;BME280;21773;50.010;19.972;2023-02-24T16:00:21;97223.75;;;14.66;52.92
35655;BME280;21773;50.010;19.972;2023-02-24T16:03:25;97215.94;;;14.65;53.07
35655;BME280;21773;50.010;19.972;2023-02-24T16:06:28;97198.69;;;14.56;54.13
35655;BME280;21773;50.010;19.972;2023-02-24T16:09:34;97193.34;;;14.46;54.59
35655;BME280;21773;50.010;19.972;2023-02-24T16:12:45;97182.84;;;14.39;54.87
35655;BME280;21773;50.010;19.972;2023-02-24T16:15:51;97177.44;;;14.39;54.35
35655;BME280;21773;50.010;19.972;2023-02-24T16:18:55;97144.38;;;14.08;55.02
35655;BME280;21773;50.010;19.972;2023-02-24T16:21:58;97171.09;;;14.20;55.26
35655;BME280;21773;50.010;19.972;2023-02-24T16:25:04;97159.75;;;14.13;55.71
35655;BME280;21773;50.010;19.972;2023-02-24T16:28:10;97155.47;;;14.12;55.82
35655;BME280;21773;50.010;19.972;2023-02-24T16:31:16;97168.25;;;14.06;56.27
35655;BME280;21773;50.010;19.972;2023-02-24T16:34:20;97156.59;;;14.06;55.92
35655;BME280;21773;50.010;19.972;2023-02-24T16:37:26;97150.16;;;14.02;56.37
35655;BME280;21773;50.010;19.972;2023-02-24T16:40:32;97121.56;;;13.85;55.82